createdAt,value
2022-12-09T00:00:09.083Z,-2.20
2022-12-09T00:05:13.083Z,-2.10
2022-12-09T00:10:17.993Z,-2.30
2022-12-09T00:15:21.359Z,-2.50
2022-12-09T00:20:24.567Z,-2.60
2022-12-09T00:25:29.150Z,-2.60
2022-12-09T00:30:32.278Z,-2.80
2022-12-09T00:35:35.392Z,-2.80
2022-12-09T00:40:40.034Z,-2.80
2022-12-09T00:45:44.868Z,-2.60
2022-12-09T00:50:48.359Z,-2.60
2022-12-09T00:55:53.234Z,-2.70
2022-12-09T01:00:56.788Z,-2.80
2022-12-09T01:06:00.348Z,-2.70
2022-12-09T01:11:10.353Z,-2.50
2022-12-09T01:16:15.871Z,-2.10
2022-12-09T01:21:19.775Z,-1.90
2022-12-09T01:26:24.433Z,-1.70
2022-12-09T01:31:27.986Z,-1.60
2022-12-09T01:36:31.944Z,-1.50
2022-12-09T01:41:36.682Z,-1.30
2022-12-09T01:46:40.171Z,-1.10
2022-12-09T01:51:45.685Z,-1.10
2022-12-09T01:56:53.050Z,-1.20
2022-12-09T02:01:59.474Z,-1.30
2022-12-09T02:07:05.779Z,-1.50
2022-12-09T02:12:14.007Z,-1.70
2022-12-09T02:17:27.227Z,-1.60
2022-12-09T02:22:38.464Z,-1.40
2022-12-09T02:27:49.884Z,-1.30
2022-12-09T02:33:19.048Z,-1.20
2022-12-09T02:38:27.620Z,-1.10
2022-12-09T02:43:35.842Z,-1.10
2022-12-09T02:48:43.944Z,-1.10
2022-12-09T02:53:53.157Z,-1.00
2022-12-09T02:58:57.497Z,-0.90
2022-12-09T03:04:05.035Z,-0.80
2022-12-09T03:09:13.688Z,-0.80
2022-12-09T03:14:21.392Z,-0.90
2022-12-09T03:19:33.750Z,-1.00
2022-12-09T03:24:41.982Z,-1.20
2022-12-09T03:29:48.468Z,-1.20
2022-12-09T03:34:56.985Z,-1.10
2022-12-09T03:40:06.073Z,-1.10
2022-12-09T03:45:15.911Z,-1.00
2022-12-09T03:50:21.904Z,-1.10
2022-12-09T03:55:34.183Z,-1.10
2022-12-09T04:00:39.026Z,-1.20
2022-12-09T04:05:43.288Z,-1.10
2022-12-09T04:10:48.258Z,-0.90
2022-12-09T04:15:53.708Z,-0.80
2022-12-09T04:20:57.003Z,-0.80
2022-12-09T04:26:01.894Z,-0.70
2022-12-09T04:31:05.321Z,-0.70
2022-12-09T04:36:11.822Z,-0.60
2022-12-09T04:41:16.930Z,-0.80
2022-12-09T04:46:20.420Z,-1.00
2022-12-09T04:51:24.100Z,-1.10
2022-12-09T04:56:28.725Z,-1.00
2022-12-09T05:01:32.493Z,-1.00
2022-12-09T05:06:36.064Z,-0.90
2022-12-09T05:11:41.102Z,-0.90
2022-12-09T05:16:44.746Z,-0.90
2022-12-09T05:21:48.179Z,-0.80
2022-12-09T05:26:53.058Z,-0.90
2022-12-09T05:31:56.248Z,-1.00
2022-12-09T05:37:00.033Z,-1.10
2022-12-09T05:42:04.794Z,-1.40
2022-12-09T05:47:08.007Z,-1.40
2022-12-09T05:52:14.548Z,-1.40
2022-12-09T05:57:19.268Z,-1.20
2022-12-09T06:02:22.828Z,-1.10
2022-12-09T06:07:27.011Z,-0.90
2022-12-09T06:12:32.188Z,-0.70
2022-12-09T06:17:35.699Z,-0.60
2022-12-09T06:22:39.133Z,-0.50
2022-12-09T06:27:43.913Z,-0.40
2022-12-09T06:32:47.530Z,-0.30
2022-12-09T06:37:51.688Z,-0.40
2022-12-09T06:42:56.562Z,-0.30
2022-12-09T06:48:00.211Z,-0.20
2022-12-09T06:53:04.376Z,-0.10
2022-12-09T06:58:09.448Z,-0.10
2022-12-09T07:03:12.883Z,-0.10
2022-12-09T07:08:16.309Z,0.10
2022-12-09T07:13:21.698Z,0.10
2022-12-09T07:18:25.193Z,0.20
2022-12-09T07:23:28.466Z,0.20
2022-12-09T07:28:33.992Z,0.20
2022-12-09T07:33:37.506Z,0.30
2022-12-09T07:38:41.579Z,0.30
2022-12-09T07:43:46.898Z,0.20
2022-12-09T07:48:50.448Z,0.30
2022-12-09T07:53:54.147Z,0.30
2022-12-09T07:58:59.483Z,0.40
2022-12-09T08:04:05.184Z,0.40
2022-12-09T08:09:11.592Z,0.30
2022-12-09T08:14:16.874Z,0.20
2022-12-09T08:19:20.330Z,0.10
2022-12-09T08:24:24.171Z,0.40
2022-12-09T08:29:29.288Z,0.50
2022-12-09T08:34:32.668Z,0.40
2022-12-09T08:39:36.172Z,0.50
2022-12-09T08:44:41.031Z,0.50
2022-12-09T08:49:44.483Z,0.60
2022-12-09T08:54:48.238Z,0.70
2022-12-09T08:59:52.692Z,0.70
2022-12-09T09:04:57.559Z,0.80
2022-12-09T09:10:01.534Z,0.90
2022-12-09T09:15:07.807Z,0.90
2022-12-09T09:20:11.871Z,0.90
2022-12-09T09:25:16.076Z,1.00
2022-12-09T09:30:21.096Z,0.90
2022-12-09T09:35:24.650Z,1.00
2022-12-09T09:40:29.597Z,1.10
2022-12-09T09:45:34.639Z,1.30
2022-12-09T09:50:46.294Z,1.20
2022-12-09T09:55:57.500Z,1.10
2022-12-09T10:01:07.607Z,1.30
2022-12-09T10:06:21.954Z,1.20
2022-12-09T10:11:32.333Z,1.30
2022-12-09T10:16:43.724Z,1.20
2022-12-09T10:21:51.353Z,1.30
2022-12-09T10:27:02.179Z,1.40
2022-12-09T10:32:13.785Z,1.50
2022-12-09T10:37:25.068Z,1.30
2022-12-09T10:42:50.542Z,1.40
2022-12-09T10:47:55.366Z,1.60
2022-12-09T10:53:04.758Z,1.60
2022-12-09T10:58:15.699Z,1.50
2022-12-09T11:03:28.127Z,1.60
2022-12-09T11:08:32.431Z,1.60
2022-12-09T11:13:41.964Z,1.90
2022-12-09T11:18:48.368Z,1.80
2022-12-09T11:24:02.336Z,1.50
2022-12-09T11:29:14.125Z,1.30
2022-12-09T11:34:23.335Z,1.60
2022-12-09T11:39:29.778Z,1.70
2022-12-09T11:44:35.180Z,1.70
2022-12-09T11:49:49.857Z,2.10
2022-12-09T11:55:13.422Z,2.20
2022-12-09T12:00:23.570Z,2.30
2022-12-09T12:05:35.751Z,2.40
2022-12-09T12:10:41.808Z,2.20
2022-12-09T12:15:51.222Z,2.10
2022-12-09T12:21:12.450Z,2.20
2022-12-09T12:26:20.798Z,2.10
2022-12-09T12:31:37.282Z,1.90
2022-12-09T12:36:49.178Z,2.00
2022-12-09T12:41:57.692Z,2.20
2022-12-09T12:47:18.215Z,1.90
2022-12-09T12:58:06.312Z,1.50
2022-12-09T13:03:21.889Z,1.40
2022-12-09T13:08:34.841Z,1.50
2022-12-09T13:13:43.768Z,1.40
2022-12-09T13:18:47.746Z,1.40
2022-12-09T13:24:00.150Z,1.40
2022-12-09T13:29:12.011Z,1.20
2022-12-09T13:34:25.834Z,1.10
2022-12-09T13:39:55.947Z,1.10
2022-12-09T13:45:05.624Z,1.10
2022-12-09T13:50:27.453Z,1.20
2022-12-09T13:55:40.578Z,1.20
2022-12-09T14:00:58.671Z,1.30
2022-12-09T14:06:19.822Z,1.00
2022-12-09T14:11:47.243Z,0.90
2022-12-09T14:16:51.478Z,0.90
2022-12-09T14:22:28.615Z,0.80
2022-12-09T14:27:33.195Z,0.70
2022-12-09T14:32:50.557Z,0.70
2022-12-09T14:38:14.928Z,0.40
2022-12-09T14:43:56.924Z,0.30
2022-12-09T14:49:04.268Z,0.20
2022-12-09T14:54:13.022Z,0.10
2022-12-09T14:59:20.935Z,0.20
2022-12-09T15:04:29.194Z,0.20
2022-12-09T15:09:32.476Z,0.40
2022-12-09T15:14:37.944Z,0.40
2022-12-09T15:25:05.062Z,0.20
2022-12-09T15:30:22.201Z,0.10
2022-12-09T15:35:27.998Z,-0.10
2022-12-09T15:40:33.900Z,-0.20
2022-12-09T15:45:42.725Z,-0.40
2022-12-09T15:50:49.192Z,-0.30
2022-12-09T15:55:55.443Z,-0.40
2022-12-09T16:01:02.342Z,-0.50
2022-12-09T16:06:08.515Z,-0.60
2022-12-09T16:11:12.375Z,-0.70
2022-12-09T16:16:29.868Z,-0.70
2022-12-09T16:21:34.852Z,-0.70
2022-12-09T16:26:40.094Z,-0.90
2022-12-09T16:31:44.887Z,-0.90
2022-12-09T16:36:54.352Z,-0.70
2022-12-09T16:42:00.759Z,-0.90
2022-12-09T16:47:14.365Z,-0.80
2022-12-09T16:52:20.766Z,-0.80
2022-12-09T16:57:24.006Z,-0.80
2022-12-09T17:02:33.021Z,-0.80
2022-12-09T17:07:36.348Z,-0.90
2022-12-09T17:12:39.619Z,-0.80
2022-12-09T17:17:48.405Z,-0.80
2022-12-09T17:22:52.125Z,-0.90
2022-12-09T17:27:55.523Z,-1.00
2022-12-09T17:33:00.147Z,-0.90
2022-12-09T17:38:03.733Z,-1.00
2022-12-09T17:43:06.983Z,-1.00
2022-12-09T17:48:11.500Z,-0.90
2022-12-09T17:53:14.622Z,-0.90
2022-12-09T17:58:18.049Z,-0.90
2022-12-09T18:03:53.737Z,-0.80
2022-12-09T18:08:45.731Z,-1.00
2022-12-09T18:13:49.293Z,-0.80
2022-12-09T18:18:54.017Z,-0.80
2022-12-09T18:23:57.599Z,-0.70
2022-12-09T18:29:01.682Z,-0.80
2022-12-09T18:34:07.130Z,-0.80
2022-12-09T18:39:10.289Z,-0.70
2022-12-09T18:44:15.561Z,-0.70
2022-12-09T18:49:22.522Z,-0.70
2022-12-09T18:54:28.660Z,-0.60
2022-12-09T18:59:32.174Z,-0.60
2022-12-09T19:04:37.458Z,-0.50
2022-12-09T19:09:41.978Z,-0.60
2022-12-09T19:14:45.311Z,-0.40
2022-12-09T19:19:50.113Z,-0.50
2022-12-09T19:24:53.530Z,-0.60
2022-12-09T19:29:57.091Z,-0.60
2022-12-09T19:35:01.822Z,-0.60
2022-12-09T19:40:07.337Z,-0.80
2022-12-09T19:45:14.154Z,-0.90
2022-12-09T19:50:20.081Z,-0.90
2022-12-09T19:55:23.443Z,-0.90
2022-12-09T20:00:26.875Z,-0.80
2022-12-09T20:05:31.778Z,-0.80
2022-12-09T20:10:35.197Z,-0.90
2022-12-09T20:15:38.841Z,-0.90
2022-12-09T20:20:48.738Z,-0.90
2022-12-09T20:25:52.312Z,-1.00
2022-12-09T20:30:55.557Z,-1.10
2022-12-09T20:36:06.736Z,-1.00
2022-12-09T20:41:13.190Z,-0.90
2022-12-09T20:46:18.568Z,-1.00
2022-12-09T20:51:24.616Z,-1.10
2022-12-09T20:56:29.954Z,-0.90
2022-12-09T21:01:35.199Z,-1.10
2022-12-09T21:06:41.400Z,-1.10
2022-12-09T21:11:45.365Z,-1.10
2022-12-09T21:16:50.684Z,-1.10
2022-12-09T21:21:55.517Z,-1.00
2022-12-09T21:26:58.889Z,-0.90
2022-12-09T21:32:02.233Z,-0.90
2022-12-09T21:37:07.031Z,-0.90
2022-12-09T21:42:10.378Z,-0.90
2022-12-09T21:47:13.805Z,-1.00
2022-12-09T21:52:18.395Z,-1.10
2022-12-09T21:57:21.530Z,-1.00
2022-12-09T22:02:24.756Z,-0.80
2022-12-09T22:07:29.455Z,-0.90
2022-12-09T22:12:32.634Z,-1.00
2022-12-09T22:17:35.861Z,-1.10
2022-12-09T22:22:40.713Z,-1.00
2022-12-09T22:27:43.886Z,-1.00
2022-12-09T22:32:50.775Z,-1.10
2022-12-09T22:37:58.125Z,-1.10
2022-12-09T22:43:02.600Z,-1.00
2022-12-09T22:48:06.001Z,-1.20
2022-12-09T22:53:10.598Z,-1.10
2022-12-09T22:58:13.921Z,-1.20
2022-12-09T23:03:18.113Z,-1.20
2022-12-09T23:08:22.804Z,-1.30
2022-12-09T23:13:25.968Z,-1.50
2022-12-09T23:18:30.872Z,-1.60
2022-12-09T23:23:35.581Z,-1.40
2022-12-09T23:28:40.366Z,-1.50
2022-12-09T23:33:45.598Z,-1.50
2022-12-09T23:38:50.206Z,-1.50
2022-12-09T23:43:53.978Z,-1.40
2022-12-09T23:48:57.170Z,-1.40
2022-12-09T23:54:04.938Z,-1.40
2022-12-09T23:59:11.197Z,-1.40
